Sukkur Weather



Sukkur's Current Weather

Temprature 26.93o haze

haze

Rain: 0 %

Min Temprature26.93o
Max Temprature26.93o
Humidity83
Wind Speed5.14 m/h
Sun Rise06:14:40
Sun Set18:17:22
Current Time: 26-Sep-2022 08:52:19
Lat/Lon: 27.7052, 68.8574




Sukkur's Geo Location



Sukkur's Weather Forecast

Time Overall Temp Min Temp Max Temp Humidity Wind Speed Rain
26-Sep-2022 (Mon)
11:00:00 clear sky 29.120 29.120 33.490 67 4.59 m/h 0 %
14:00:00 clear sky 33.400 33.400 36.630 43 3.32 m/h 0 %
17:00:00 clear sky 36.210 36.210 36.210 23 2.52 m/h 0 %
20:00:00 clear sky 32.120 32.120 32.120 29 3.1 m/h 0 %
23:00:00 clear sky 30.670 30.670 30.670 36 3.9 m/h 0 %
27-Sep-2022 (Tue)
02:00:00 clear sky 28.670 28.670 28.670 53 3.3 m/h 0 %
05:00:00 clear sky 27.460 27.460 27.460 61 3.83 m/h 0 %
08:00:00 clear sky 29.090 29.090 29.090 56 4.48 m/h 0 %
11:00:00 clear sky 34.960 34.960 34.960 31 4.44 m/h 0 %
14:00:00 clear sky 37.180 37.180 37.180 24 3.48 m/h 0 %
17:00:00 clear sky 36.720 36.720 36.720 24 2.33 m/h 0 %
20:00:00 clear sky 32.590 32.590 32.590 30 2.92 m/h 0 %
23:00:00 clear sky 30.470 30.470 30.470 47 6.26 m/h 0 %
28-Sep-2022 (Wed)
02:00:00 clear sky 28.480 28.480 28.480 56 4.18 m/h 0 %
05:00:00 clear sky 27.010 27.010 27.010 59 4.33 m/h 0 %
08:00:00 clear sky 27.960 27.960 27.960 61 5.24 m/h 0 %
11:00:00 clear sky 33.830 33.830 33.830 35 4.31 m/h 0 %
14:00:00 clear sky 36.770 36.770 36.770 22 3.48 m/h 0 %
17:00:00 clear sky 36.220 36.220 36.220 24 3.14 m/h 0 %
20:00:00 clear sky 31.900 31.900 31.900 34 4.53 m/h 0 %
23:00:00 clear sky 29.710 29.710 29.710 54 6.14 m/h 0 %
29-Sep-2022 (Thu)
02:00:00 clear sky 27.510 27.510 27.510 60 4.29 m/h 0 %
05:00:00 clear sky 25.750 25.750 25.750 68 3.81 m/h 0 %
08:00:00 clear sky 27.090 27.090 27.090 65 4.52 m/h 0 %
11:00:00 clear sky 32.780 32.780 32.780 42 3.89 m/h 0 %
14:00:00 clear sky 36.060 36.060 36.060 26 3.57 m/h 0 %
17:00:00 clear sky 35.860 35.860 35.860 27 2.57 m/h 0 %
20:00:00 clear sky 31.800 31.800 31.800 35 3.25 m/h 0 %
23:00:00 clear sky 30.040 30.040 30.040 52 5.58 m/h 0 %
30-Sep-2022 (Fri)
02:00:00 clear sky 27.840 27.840 27.840 60 4.04 m/h 0 %
05:00:00 clear sky 26.280 26.280 26.280 65 3.56 m/h 0 %
08:00:00 clear sky 27.840 27.840 27.840 60 4.41 m/h 0 %
11:00:00 clear sky 33.910 33.910 33.910 34 3.96 m/h 0 %
14:00:00 clear sky 36.460 36.460 36.460 24 3.06 m/h 0 %
17:00:00 clear sky 36.000 36.000 36.000 25 1.8 m/h 0 %
20:00:00 clear sky 31.540 31.540 31.540 31 1.92 m/h 0 %
23:00:00 clear sky 29.970 29.970 29.970 47 5.8 m/h 0 %
01-Oct-2022 (Sat)
02:00:00 clear sky 27.730 27.730 27.730 60 3.88 m/h 0 %
05:00:00 clear sky 26.640 26.640 26.640 63 3.95 m/h 0 %
08:00:00 clear sky 27.910 27.910 27.910 61 5.16 m/h 0 %

Famous Cities (61)